sensor_id;sensor_type;location;lat;lon;timestamp;temperature;humidity
23869;DHT22;12115;47.128;15.422;2024-02-16T00:00:31;3.90;99.90
23869;DHT22;12115;47.128;15.422;2024-02-16T00:02:59;3.90;99.90
23869;DHT22;12115;47.128;15.422;2024-02-16T00:05:25;3.90;99.90
23869;DHT22;12115;47.128;15.422;2024-02-16T00:07:51;3.80;99.90
23869;DHT22;12115;47.128;15.422;2024-02-16T00:10:18;3.80;99.90
23869;DHT22;12115;47.128;15.422;2024-02-16T00:12:46;3.80;99.90
23869;DHT22;12115;47.128;15.422;2024-02-16T00:15:12;3.70;99.90
23869;DHT22;12115;47.128;15.422;2024-02-16T00:17:39;3.70;99.90
23869;DHT22;12115;47.128;15.422;2024-02-16T00:20:05;3.80;99.90
23869;DHT22;12115;47.128;15.422;2024-02-16T00:22:33;3.70;99.90
23869;DHT22;12115;47.128;15.422;2024-02-16T00:25:00;3.70;99.90
23869;DHT22;12115;47.128;15.422;2024-02-16T00:27:26;3.70;99.90
23869;DHT22;12115;47.128;15.422;2024-02-16T00:29:53;3.60;99.90
23869;DHT22;12115;47.128;15.422;2024-02-16T00:32:20;3.60;99.90
23869;DHT22;12115;47.128;15.422;2024-02-16T00:34:46;3.60;99.90
23869;DHT22;12115;47.128;15.422;2024-02-16T00:37:13;3.60;99.90
23869;DHT22;12115;47.128;15.422;2024-02-16T00:39:39;3.60;99.90
23869;DHT22;12115;47.128;15.422;2024-02-16T00:42:09;3.50;99.90
23869;DHT22;12115;47.128;15.422;2024-02-16T00:44:35;3.50;99.90
23869;DHT22;12115;47.128;15.422;2024-02-16T00:47:02;3.50;99.90
23869;DHT22;12115;47.128;15.422;2024-02-16T00:49:28;3.40;99.90
23869;DHT22;12115;47.128;15.422;2024-02-16T00:51:55;3.40;99.90
23869;DHT22;12115;47.128;15.422;2024-02-16T00:54:24;3.40;99.90
23869;DHT22;12115;47.128;15.422;2024-02-16T00:56:51;3.40;99.90
23869;DHT22;12115;47.128;15.422;2024-02-16T00:59:18;3.40;99.90
23869;DHT22;12115;47.128;15.422;2024-02-16T01:01:45;3.40;99.90
23869;DHT22;12115;47.128;15.422;2024-02-16T01:04:11;3.40;99.90
23869;DHT22;12115;47.128;15.422;2024-02-16T01:06:37;3.40;99.90
23869;DHT22;12115;47.128;15.422;2024-02-16T01:09:04;3.30;99.90
23869;DHT22;12115;47.128;15.422;2024-02-16T01:11:30;3.30;99.90
23869;DHT22;12115;47.128;15.422;2024-02-16T01:13:58;3.30;99.90
23869;DHT22;12115;47.128;15.422;2024-02-16T01:16:28;3.30;99.90
23869;DHT22;12115;47.128;15.422;2024-02-16T01:18:55;3.30;99.90
23869;DHT22;12115;47.128;15.422;2024-02-16T01:21:22;3.20;99.90
23869;DHT22;12115;47.128;15.422;2024-02-16T01:23:49;3.20;99.90
23869;DHT22;12115;47.128;15.422;2024-02-16T01:26:15;3.20;99.90
23869;DHT22;12115;47.128;15.422;2024-02-16T01:28:42;3.20;99.90
23869;DHT22;12115;47.128;15.422;2024-02-16T01:31:09;3.20;99.90
23869;DHT22;12115;47.128;15.422;2024-02-16T01:33:36;3.10;99.90
23869;DHT22;12115;47.128;15.422;2024-02-16T01:36:03;3.10;99.90
23869;DHT22;12115;47.128;15.422;2024-02-16T01:38:29;3.10;99.90
23869;DHT22;12115;47.128;15.422;2024-02-16T01:40:56;3.00;99.90
23869;DHT22;12115;47.128;15.422;2024-02-16T01:43:22;3.00;99.90
23869;DHT22;12115;47.128;15.422;2024-02-16T01:45:48;3.00;99.90
23869;DHT22;12115;47.128;15.422;2024-02-16T01:48:15;3.00;99.90
23869;DHT22;12115;47.128;15.422;2024-02-16T01:50:45;3.00;99.90
23869;DHT22;12115;47.128;15.422;2024-02-16T01:53:12;3.00;99.90
23869;DHT22;12115;47.128;15.422;2024-02-16T01:55:38;2.90;99.90
23869;DHT22;12115;47.128;15.422;2024-02-16T01:58:05;2.90;99.90
23869;DHT22;12115;47.128;15.422;2024-02-16T02:00:31;2.90;99.90
23869;DHT22;12115;47.128;15.422;2024-02-16T02:02:57;2.90;99.90
23869;DHT22;12115;47.128;15.422;2024-02-16T02:05:24;2.90;99.90
23869;DHT22;12115;47.128;15.422;2024-02-16T02:07:51;2.80;99.90
23869;DHT22;12115;47.128;15.422;2024-02-16T02:10:19;2.80;99.90
23869;DHT22;12115;47.128;15.422;2024-02-16T02:12:45;2.80;99.90
23869;DHT22;12115;47.128;15.422;2024-02-16T02:15:11;2.80;99.90
23869;DHT22;12115;47.128;15.422;2024-02-16T02:17:38;2.80;99.90
23869;DHT22;12115;47.128;15.422;2024-02-16T02:20:05;2.80;99.90
23869;DHT22;12115;47.128;15.422;2024-02-16T02:22:37;2.80;99.90
23869;DHT22;12115;47.128;15.422;2024-02-16T02:25:05;2.70;99.90
23869;DHT22;12115;47.128;15.422;2024-02-16T02:27:31;2.70;99.90
23869;DHT22;12115;47.128;15.422;2024-02-16T02:29:59;2.70;99.90
23869;DHT22;12115;47.128;15.422;2024-02-16T02:32:25;2.70;99.90
23869;DHT22;12115;47.128;15.422;2024-02-16T02:34:52;2.70;99.90
23869;DHT22;12115;47.128;15.422;2024-02-16T02:37:24;2.60;99.90
23869;DHT22;12115;47.128;15.422;2024-02-16T02:39:50;2.60;99.90
23869;DHT22;12115;47.128;15.422;2024-02-16T02:42:17;2.60;99.90
23869;DHT22;12115;47.128;15.422;2024-02-16T02:44:43;2.60;99.90
23869;DHT22;12115;47.128;15.422;2024-02-16T02:47:16;2.60;99.90
23869;DHT22;12115;47.128;15.422;2024-02-16T02:49:43;2.50;99.90
23869;DHT22;12115;47.128;15.422;2024-02-16T02:52:10;2.50;99.90
23869;DHT22;12115;47.128;15.422;2024-02-16T02:54:36;2.50;99.90
23869;DHT22;12115;47.128;15.422;2024-02-16T02:57:03;2.50;99.90
23869;DHT22;12115;47.128;15.422;2024-02-16T02:59:29;2.40;99.90
23869;DHT22;12115;47.128;15.422;2024-02-16T03:01:55;2.40;99.90
23869;DHT22;12115;47.128;15.422;2024-02-16T03:04:22;2.40;99.90
23869;DHT22;12115;47.128;15.422;2024-02-16T03:06:48;2.40;99.90
23869;DHT22;12115;47.128;15.422;2024-02-16T03:09:17;2.40;99.90
23869;DHT22;12115;47.128;15.422;2024-02-16T03:11:43;2.40;99.90
23869;DHT22;12115;47.128;15.422;2024-02-16T03:14:10;2.30;99.90
23869;DHT22;12115;47.128;15.422;2024-02-16T03:16:36;2.30;99.90
23869;DHT22;12115;47.128;15.422;2024-02-16T03:19:05;2.30;99.90
23869;DHT22;12115;47.128;15.422;2024-02-16T03:21:32;2.30;99.90
23869;DHT22;12115;47.128;15.422;2024-02-16T03:23:58;2.30;99.90
23869;DHT22;12115;47.128;15.422;2024-02-16T03:26:27;2.30;99.90
23869;DHT22;12115;47.128;15.422;2024-02-16T03:28:54;2.30;99.90
23869;DHT22;12115;47.128;15.422;2024-02-16T03:31:22;2.20;99.90
23869;DHT22;12115;47.128;15.422;2024-02-16T03:33:49;2.20;99.90
23869;DHT22;12115;47.128;15.422;2024-02-16T03:36:17;2.30;99.90
23869;DHT22;12115;47.128;15.422;2024-02-16T03:38:45;2.20;99.90
23869;DHT22;12115;47.128;15.422;2024-02-16T03:41:13;2.20;99.90
23869;DHT22;12115;47.128;15.422;2024-02-16T03:43:40;2.20;99.90
23869;DHT22;12115;47.128;15.422;2024-02-16T03:46:06;2.20;99.90
23869;DHT22;12115;47.128;15.422;2024-02-16T03:48:33;2.10;99.90
23869;DHT22;12115;47.128;15.422;2024-02-16T03:50:59;2.10;99.90
23869;DHT22;12115;47.128;15.422;2024-02-16T03:53:26;2.10;99.90
23869;DHT22;12115;47.128;15.422;2024-02-16T03:55:52;2.10;99.90
23869;DHT22;12115;47.128;15.422;2024-02-16T03:58:19;2.10;99.90
23869;DHT22;12115;47.128;15.422;2024-02-16T04:00:45;2.10;99.90
23869;DHT22;12115;47.128;15.422;2024-02-16T04:03:11;2.00;99.90
23869;DHT22;12115;47.128;15.422;2024-02-16T04:05:38;2.10;99.90
23869;DHT22;12115;47.128;15.422;2024-02-16T04:08:05;2.00;99.90
23869;DHT22;12115;47.128;15.422;2024-02-16T04:10:33;2.00;99.90
23869;DHT22;12115;47.128;15.422;2024-02-16T04:13:00;2.00;99.90
23869;DHT22;12115;47.128;15.422;2024-02-16T04:15:27;2.00;99.90
23869;DHT22;12115;47.128;15.422;2024-02-16T04:17:54;2.00;99.90
23869;DHT22;12115;47.128;15.422;2024-02-16T04:20:20;2.00;99.90
23869;DHT22;12115;47.128;15.422;2024-02-16T04:22:47;2.00;99.90
23869;DHT22;12115;47.128;15.422;2024-02-16T04:25:13;1.90;99.90
23869;DHT22;12115;47.128;15.422;2024-02-16T04:27:40;1.90;99.90
23869;DHT22;12115;47.128;15.422;2024-02-16T04:30:06;1.90;99.90
23869;DHT22;12115;47.128;15.422;2024-02-16T04:32:33;1.80;99.90
23869;DHT22;12115;47.128;15.422;2024-02-16T04:34:59;1.80;99.90
23869;DHT22;12115;47.128;15.422;2024-02-16T04:37:26;1.80;99.90
23869;DHT22;12115;47.128;15.422;2024-02-16T04:39:53;1.80;99.90
23869;DHT22;12115;47.128;15.422;2024-02-16T04:42:19;1.80;99.90
23869;DHT22;12115;47.128;15.422;2024-02-16T04:44:46;1.80;99.90
23869;DHT22;12115;47.128;15.422;2024-02-16T04:47:12;1.80;99.90
23869;DHT22;12115;47.128;15.422;2024-02-16T04:49:40;1.80;99.90
23869;DHT22;12115;47.128;15.422;2024-02-16T04:52:06;1.80;99.90
23869;DHT22;12115;47.128;15.422;2024-02-16T04:54:35;1.70;99.90
23869;DHT22;12115;47.128;15.422;2024-02-16T04:57:02;1.70;99.90
23869;DHT22;12115;47.128;15.422;2024-02-16T04:59:29;1.70;99.90
23869;DHT22;12115;47.128;15.422;2024-02-16T05:01:55;1.70;99.90
23869;DHT22;12115;47.128;15.422;2024-02-16T05:04:22;1.70;99.90
23869;DHT22;12115;47.128;15.422;2024-02-16T05:06:49;1.70;99.90
23869;DHT22;12115;47.128;15.422;2024-02-16T05:09:18;1.70;99.90
23869;DHT22;12115;47.128;15.422;2024-02-16T05:11:45;1.70;99.90
23869;DHT22;12115;47.128;15.422;2024-02-16T05:14:12;1.70;99.90
23869;DHT22;12115;47.128;15.422;2024-02-16T05:16:45;1.60;99.90
23869;DHT22;12115;47.128;15.422;2024-02-16T05:19:12;1.60;99.90
23869;DHT22;12115;47.128;15.422;2024-02-16T05:21:39;1.60;99.90
23869;DHT22;12115;47.128;15.422;2024-02-16T05:24:06;1.60;99.90
23869;DHT22;12115;47.128;15.422;2024-02-16T05:26:32;1.60;99.90
23869;DHT22;12115;47.128;15.422;2024-02-16T05:28:58;1.50;99.90
23869;DHT22;12115;47.128;15.422;2024-02-16T05:31:25;1.50;99.90
23869;DHT22;12115;47.128;15.422;2024-02-16T05:33:57;1.60;99.90
23869;DHT22;12115;47.128;15.422;2024-02-16T05:36:27;1.50;99.90
23869;DHT22;12115;47.128;15.422;2024-02-16T05:38:58;1.50;99.90
23869;DHT22;12115;47.128;15.422;2024-02-16T05:41:35;1.50;99.90
23869;DHT22;12115;47.128;15.422;2024-02-16T05:44:04;1.50;99.90
23869;DHT22;12115;47.128;15.422;2024-02-16T05:46:30;1.40;99.90
23869;DHT22;12115;47.128;15.422;2024-02-16T05:48:57;1.40;99.90
23869;DHT22;12115;47.128;15.422;2024-02-16T05:51:23;1.40;99.90
23869;DHT22;12115;47.128;15.422;2024-02-16T05:53:49;1.50;99.90
23869;DHT22;12115;47.128;15.422;2024-02-16T05:56:17;1.40;99.90
23869;DHT22;12115;47.128;15.422;2024-02-16T05:58:44;1.40;99.90
23869;DHT22;12115;47.128;15.422;2024-02-16T06:01:11;1.40;99.90
23869;DHT22;12115;47.128;15.422;2024-02-16T06:03:41;1.40;99.90
23869;DHT22;12115;47.128;15.422;2024-02-16T06:06:08;1.40;99.90
23869;DHT22;12115;47.128;15.422;2024-02-16T06:08:35;1.50;99.90
23869;DHT22;12115;47.128;15.422;2024-02-16T06:11:01;1.40;99.90
23869;DHT22;12115;47.128;15.422;2024-02-16T06:13:28;1.50;99.90
23869;DHT22;12115;47.128;15.422;2024-02-16T06:15:55;1.40;99.90
23869;DHT22;12115;47.128;15.422;2024-02-16T06:18:23;1.50;99.90
23869;DHT22;12115;47.128;15.422;2024-02-16T06:20:49;1.50;99.90
23869;DHT22;12115;47.128;15.422;2024-02-16T06:23:16;1.50;99.90
23869;DHT22;12115;47.128;15.422;2024-02-16T06:25:43;1.50;99.90
23869;DHT22;12115;47.128;15.422;2024-02-16T06:28:09;1.50;99.90
23869;DHT22;12115;47.128;15.422;2024-02-16T06:30:36;1.60;99.90
23869;DHT22;12115;47.128;15.422;2024-02-16T06:33:02;1.60;99.90
23869;DHT22;12115;47.128;15.422;2024-02-16T06:35:29;1.60;99.90
23869;DHT22;12115;47.128;15.422;2024-02-16T06:37:56;1.60;99.90
23869;DHT22;12115;47.128;15.422;2024-02-16T06:40:24;1.70;99.90
23869;DHT22;12115;47.128;15.422;2024-02-16T06:42:52;1.70;99.90
23869;DHT22;12115;47.128;15.422;2024-02-16T06:45:18;1.80;99.90
23869;DHT22;12115;47.128;15.422;2024-02-16T06:47:46;1.80;99.90
23869;DHT22;12115;47.128;15.422;2024-02-16T06:50:12;1.80;99.90
23869;DHT22;12115;47.128;15.422;2024-02-16T06:52:39;1.90;99.90
23869;DHT22;12115;47.128;15.422;2024-02-16T06:55:06;2.00;99.90
23869;DHT22;12115;47.128;15.422;2024-02-16T06:57:32;2.10;99.90
23869;DHT22;12115;47.128;15.422;2024-02-16T06:59:58;2.10;99.90
23869;DHT22;12115;47.128;15.422;2024-02-16T07:02:25;2.20;99.90
23869;DHT22;12115;47.128;15.422;2024-02-16T07:04:51;2.40;99.90
23869;DHT22;12115;47.128;15.422;2024-02-16T07:07:18;2.40;99.90
23869;DHT22;12115;47.128;15.422;2024-02-16T07:09:45;2.50;99.90
23869;DHT22;12115;47.128;15.422;2024-02-16T07:12:11;2.70;99.90
23869;DHT22;12115;47.128;15.422;2024-02-16T07:14:38;2.80;99.90
23869;DHT22;12115;47.128;15.422;2024-02-16T07:17:05;3.00;99.90
23869;DHT22;12115;47.128;15.422;2024-02-16T07:19:39;3.30;99.90
23869;DHT22;12115;47.128;15.422;2024-02-16T07:22:06;3.70;99.90
23869;DHT22;12115;47.128;15.422;2024-02-16T07:24:36;3.90;99.90
23869;DHT22;12115;47.128;15.422;2024-02-16T07:27:02;4.00;99.90
23869;DHT22;12115;47.128;15.422;2024-02-16T07:29:29;4.00;99.90
23869;DHT22;12115;47.128;15.422;2024-02-16T07:31:55;4.20;99.90
23869;DHT22;12115;47.128;15.422;2024-02-16T07:34:22;4.60;99.90
23869;DHT22;12115;47.128;15.422;2024-02-16T07:36:49;5.10;99.90
23869;DHT22;12115;47.128;15.422;2024-02-16T07:39:18;5.60;99.90
23869;DHT22;12115;47.128;15.422;2024-02-16T07:41:44;6.10;99.90
23869;DHT22;12115;47.128;15.422;2024-02-16T07:44:11;6.60;99.90
23869;DHT22;12115;47.128;15.422;2024-02-16T07:46:40;7.10;99.90
23869;DHT22;12115;47.128;15.422;2024-02-16T07:49:07;7.50;99.90
23869;DHT22;12115;47.128;15.422;2024-02-16T07:51:34;7.90;99.90
23869;DHT22;12115;47.128;15.422;2024-02-16T07:54:00;8.40;99.90
23869;DHT22;12115;47.128;15.422;2024-02-16T07:56:27;8.90;99.90
23869;DHT22;12115;47.128;15.422;2024-02-16T07:58:53;9.20;99.90
23869;DHT22;12115;47.128;15.422;2024-02-16T08:01:20;9.60;99.90
23869;DHT22;12115;47.128;15.422;2024-02-16T08:03:46;9.90;99.90
23869;DHT22;12115;47.128;15.422;2024-02-16T08:06:14;10.30;99.90
23869;DHT22;12115;47.128;15.422;2024-02-16T08:08:40;10.40;99.90
23869;DHT22;12115;47.128;15.422;2024-02-16T08:11:06;10.70;99.90
23869;DHT22;12115;47.128;15.422;2024-02-16T08:13:33;11.10;99.90
23869;DHT22;12115;47.128;15.422;2024-02-16T08:16:00;11.60;99.90
23869;DHT22;12115;47.128;15.422;2024-02-16T08:18:26;12.00;99.90
23869;DHT22;12115;47.128;15.422;2024-02-16T08:20:53;12.30;99.90
23869;DHT22;12115;47.128;15.422;2024-02-16T08:23:19;12.70;99.90
23869;DHT22;12115;47.128;15.422;2024-02-16T08:25:46;13.00;99.90
23869;DHT22;12115;47.128;15.422;2024-02-16T08:28:13;13.40;99.90
23869;DHT22;12115;47.128;15.422;2024-02-16T08:30:40;13.90;99.90
23869;DHT22;12115;47.128;15.422;2024-02-16T08:33:10;13.70;99.90
23869;DHT22;12115;47.128;15.422;2024-02-16T08:35:38;14.20;99.90
23869;DHT22;12115;47.128;15.422;2024-02-16T08:38:05;14.50;99.90
23869;DHT22;12115;47.128;15.422;2024-02-16T08:40:37;14.70;99.90
23869;DHT22;12115;47.128;15.422;2024-02-16T08:43:05;15.20;99.90
23869;DHT22;12115;47.128;15.422;2024-02-16T08:45:31;15.50;99.90
23869;DHT22;12115;47.128;15.422;2024-02-16T08:47:58;15.80;99.90
23869;DHT22;12115;47.128;15.422;2024-02-16T08:50:24;15.70;99.40
23869;DHT22;12115;47.128;15.422;2024-02-16T08:52:51;15.70;99.70
23869;DHT22;12115;47.128;15.422;2024-02-16T08:55:18;16.10;99.10
23869;DHT22;12115;47.128;15.422;2024-02-16T08:57:44;16.40;98.60
23869;DHT22;12115;47.128;15.422;2024-02-16T09:00:12;16.50;98.20
23869;DHT22;12115;47.128;15.422;2024-02-16T09:02:38;16.70;97.60
23869;DHT22;12115;47.128;15.422;2024-02-16T09:05:05;16.90;97.70
23869;DHT22;12115;47.128;15.422;2024-02-16T09:07:32;17.30;96.80
23869;DHT22;12115;47.128;15.422;2024-02-16T09:09:58;17.60;96.60
23869;DHT22;12115;47.128;15.422;2024-02-16T09:12:24;17.40;94.70
23869;DHT22;12115;47.128;15.422;2024-02-16T09:14:51;17.60;96.30
23869;DHT22;12115;47.128;15.422;2024-02-16T09:17:17;17.70;94.60
23869;DHT22;12115;47.128;15.422;2024-02-16T09:19:45;18.10;95.10
23869;DHT22;12115;47.128;15.422;2024-02-16T09:22:12;18.50;94.50
23869;DHT22;12115;47.128;15.422;2024-02-16T09:24:39;19.10;93.10
23869;DHT22;12115;47.128;15.422;2024-02-16T09:27:06;19.40;93.20
23869;DHT22;12115;47.128;15.422;2024-02-16T09:29:36;19.70;92.60
23869;DHT22;12115;47.128;15.422;2024-02-16T09:32:02;19.70;92.30
23869;DHT22;12115;47.128;15.422;2024-02-16T09:34:29;20.00;91.50
23869;DHT22;12115;47.128;15.422;2024-02-16T09:36:56;20.40;90.90
23869;DHT22;12115;47.128;15.422;2024-02-16T09:39:22;20.50;90.50
23869;DHT22;12115;47.128;15.422;2024-02-16T09:41:49;20.80;88.80
23869;DHT22;12115;47.128;15.422;2024-02-16T09:44:16;21.00;87.70
23869;DHT22;12115;47.128;15.422;2024-02-16T09:46:42;21.10;84.90
23869;DHT22;12115;47.128;15.422;2024-02-16T09:49:09;21.30;85.50
23869;DHT22;12115;47.128;15.422;2024-02-16T09:51:36;21.20;83.70
23869;DHT22;12115;47.128;15.422;2024-02-16T09:56:30;21.50;84.20
23869;DHT22;12115;47.128;15.422;2024-02-16T09:58:56;21.60;80.80
23869;DHT22;12115;47.128;15.422;2024-02-16T10:01:23;21.90;79.80
23869;DHT22;12115;47.128;15.422;2024-02-16T10:03:50;22.00;79.30
23869;DHT22;12115;47.128;15.422;2024-02-16T10:06:16;21.80;78.10
23869;DHT22;12115;47.128;15.422;2024-02-16T10:08:55;22.10;78.50
23869;DHT22;12115;47.128;15.422;2024-02-16T10:11:26;22.50;77.60
23869;DHT22;12115;47.128;15.422;2024-02-16T10:14:02;22.40;76.80
23869;DHT22;12115;47.128;15.422;2024-02-16T10:16:29;22.70;76.80
23869;DHT22;12115;47.128;15.422;2024-02-16T10:18:56;22.90;74.80
23869;DHT22;12115;47.128;15.422;2024-02-16T10:21:24;23.10;73.60
23869;DHT22;12115;47.128;15.422;2024-02-16T10:24:11;23.40;73.60
23869;DHT22;12115;47.128;15.422;2024-02-16T10:26:40;23.60;72.30
23869;DHT22;12115;47.128;15.422;2024-02-16T10:29:10;23.30;70.80
23869;DHT22;12115;47.128;15.422;2024-02-16T10:31:40;23.40;70.70
23869;DHT22;12115;47.128;15.422;2024-02-16T10:34:07;23.70;70.60
23869;DHT22;12115;47.128;15.422;2024-02-16T10:36:36;23.90;71.40
23869;DHT22;12115;47.128;15.422;2024-02-16T10:39:05;24.30;69.20
23869;DHT22;12115;47.128;15.422;2024-02-16T10:41:45;24.50;69.00
23869;DHT22;12115;47.128;15.422;2024-02-16T10:44:13;24.80;69.50
23869;DHT22;12115;47.128;15.422;2024-02-16T10:46:40;25.00;69.00
23869;DHT22;12115;47.128;15.422;2024-02-16T10:49:06;25.20;67.30
23869;DHT22;12115;47.128;15.422;2024-02-16T10:54:07;25.10;66.00
23869;DHT22;12115;47.128;15.422;2024-02-16T10:56:38;25.60;65.20
23869;DHT22;12115;47.128;15.422;2024-02-16T10:59:08;25.70;64.30
23869;DHT22;12115;47.128;15.422;2024-02-16T11:01:39;25.60;64.80
23869;DHT22;12115;47.128;15.422;2024-02-16T14:10:24;15.30;82.80
23869;DHT22;12115;47.128;15.422;2024-02-16T14:12:50;15.00;83.20
23869;DHT22;12115;47.128;15.422;2024-02-16T14:15:19;15.00;83.40
23869;DHT22;12115;47.128;15.422;2024-02-16T14:17:47;15.00;83.30
23869;DHT22;12115;47.128;15.422;2024-02-16T14:20:14;15.10;82.80
23869;DHT22;12115;47.128;15.422;2024-02-16T14:22:41;15.20;82.70
23869;DHT22;12115;47.128;15.422;2024-02-16T14:25:09;15.10;82.80
23869;DHT22;12115;47.128;15.422;2024-02-16T14:27:38;15.10;83.20
23869;DHT22;12115;47.128;15.422;2024-02-16T14:30:05;15.00;83.30
23869;DHT22;12115;47.128;15.422;2024-02-16T14:32:32;14.90;83.70
23869;DHT22;12115;47.128;15.422;2024-02-16T14:35:00;15.00;83.60
23869;DHT22;12115;47.128;15.422;2024-02-16T14:37:28;15.00;83.40
23869;DHT22;12115;47.128;15.422;2024-02-16T14:39:55;14.90;83.70
23869;DHT22;12115;47.128;15.422;2024-02-16T14:42:24;14.90;83.80
23869;DHT22;12115;47.128;15.422;2024-02-16T14:44:52;14.80;83.80
23869;DHT22;12115;47.128;15.422;2024-02-16T14:47:21;14.80;84.20
23869;DHT22;12115;47.128;15.422;2024-02-16T14:49:49;14.80;84.70
23869;DHT22;12115;47.128;15.422;2024-02-16T14:52:16;14.70;84.80
23869;DHT22;12115;47.128;15.422;2024-02-16T14:54:43;14.80;85.40
23869;DHT22;12115;47.128;15.422;2024-02-16T14:57:10;14.70;85.20
23869;DHT22;12115;47.128;15.422;2024-02-16T14:59:38;14.70;85.70
23869;DHT22;12115;47.128;15.422;2024-02-16T15:02:05;14.60;85.60
23869;DHT22;12115;47.128;15.422;2024-02-16T15:04:32;14.70;85.70
23869;DHT22;12115;47.128;15.422;2024-02-16T15:06:59;14.70;85.80
23869;DHT22;12115;47.128;15.422;2024-02-16T15:09:43;14.60;86.50
23869;DHT22;12115;47.128;15.422;2024-02-16T15:12:10;14.50;86.80
23869;DHT22;12115;47.128;15.422;2024-02-16T15:14:38;14.50;86.90
23869;DHT22;12115;47.128;15.422;2024-02-16T15:17:05;14.50;86.90
23869;DHT22;12115;47.128;15.422;2024-02-16T15:19:33;14.50;86.90
23869;DHT22;12115;47.128;15.422;2024-02-16T15:22:00;14.50;87.10
23869;DHT22;12115;47.128;15.422;2024-02-16T15:24:27;14.50;87.00
23869;DHT22;12115;47.128;15.422;2024-02-16T15:26:55;14.50;87.10
23869;DHT22;12115;47.128;15.422;2024-02-16T15:29:22;14.50;87.00
23869;DHT22;12115;47.128;15.422;2024-02-16T15:31:49;14.40;87.30
23869;DHT22;12115;47.128;15.422;2024-02-16T15:34:16;14.40;87.50
23869;DHT22;12115;47.128;15.422;2024-02-16T15:36:44;14.40;88.00
23869;DHT22;12115;47.128;15.422;2024-02-16T15:39:11;14.40;87.90
23869;DHT22;12115;47.128;15.422;2024-02-16T15:41:39;14.30;88.20
23869;DHT22;12115;47.128;15.422;2024-02-16T15:44:06;14.20;88.80
23869;DHT22;12115;47.128;15.422;2024-02-16T15:46:34;14.20;89.10
23869;DHT22;12115;47.128;15.422;2024-02-16T15:49:01;14.10;89.00
23869;DHT22;12115;47.128;15.422;2024-02-16T15:51:28;14.10;89.40
23869;DHT22;12115;47.128;15.422;2024-02-16T15:53:55;14.00;89.80
23869;DHT22;12115;47.128;15.422;2024-02-16T15:56:23;13.90;89.80
23869;DHT22;12115;47.128;15.422;2024-02-16T15:58:51;13.90;90.00
23869;DHT22;12115;47.128;15.422;2024-02-16T16:01:20;13.80;90.30
23869;DHT22;12115;47.128;15.422;2024-02-16T16:03:47;13.70;90.30
23869;DHT22;12115;47.128;15.422;2024-02-16T16:06:14;13.60;90.40
23869;DHT22;12115;47.128;15.422;2024-02-16T16:08:43;13.50;90.50
23869;DHT22;12115;47.128;15.422;2024-02-16T16:11:11;13.50;90.80
23869;DHT22;12115;47.128;15.422;2024-02-16T16:13:39;13.30;90.90
23869;DHT22;12115;47.128;15.422;2024-02-16T16:16:06;13.20;91.10
23869;DHT22;12115;47.128;15.422;2024-02-16T16:18:34;13.10;91.20
23869;DHT22;12115;47.128;15.422;2024-02-16T16:21:04;13.10;91.20
23869;DHT22;12115;47.128;15.422;2024-02-16T16:23:31;13.00;91.50
23869;DHT22;12115;47.128;15.422;2024-02-16T16:26:01;13.00;91.40
23869;DHT22;12115;47.128;15.422;2024-02-16T16:28:29;12.90;91.50
23869;DHT22;12115;47.128;15.422;2024-02-16T16:30:56;12.80;91.60
23869;DHT22;12115;47.128;15.422;2024-02-16T16:33:23;12.70;91.80
23869;DHT22;12115;47.128;15.422;2024-02-16T16:35:50;12.60;91.90
23869;DHT22;12115;47.128;15.422;2024-02-16T16:38:19;12.50;92.20
23869;DHT22;12115;47.128;15.422;2024-02-16T16:40:46;12.30;92.30
23869;DHT22;12115;47.128;15.422;2024-02-16T16:43:13;12.30;92.50
23869;DHT22;12115;47.128;15.422;2024-02-16T16:45:41;12.20;92.40
23869;DHT22;12115;47.128;15.422;2024-02-16T16:48:08;12.10;92.50
23869;DHT22;12115;47.128;15.422;2024-02-16T16:50:36;11.80;92.80
23869;DHT22;12115;47.128;15.422;2024-02-16T16:53:03;11.70;93.10
23869;DHT22;12115;47.128;15.422;2024-02-16T16:55:31;11.60;93.20
23869;DHT22;12115;47.128;15.422;2024-02-16T16:57:59;11.50;93.30
23869;DHT22;12115;47.128;15.422;2024-02-16T17:00:27;11.50;93.40
23869;DHT22;12115;47.128;15.422;2024-02-16T17:02:54;11.40;93.60
23869;DHT22;12115;47.128;15.422;2024-02-16T17:05:21;11.30;93.70
23869;DHT22;12115;47.128;15.422;2024-02-16T17:07:49;11.20;93.70
23869;DHT22;12115;47.128;15.422;2024-02-16T17:10:16;11.20;93.70
23869;DHT22;12115;47.128;15.422;2024-02-16T17:12:43;11.10;94.10
23869;DHT22;12115;47.128;15.422;2024-02-16T17:15:15;11.00;94.30
23869;DHT22;12115;47.128;15.422;2024-02-16T17:17:46;10.90;94.60
23869;DHT22;12115;47.128;15.422;2024-02-16T17:20:26;10.90;94.40
23869;DHT22;12115;47.128;15.422;2024-02-16T17:22:54;10.90;94.90
23869;DHT22;12115;47.128;15.422;2024-02-16T17:25:21;10.80;94.70
23869;DHT22;12115;47.128;15.422;2024-02-16T17:27:52;10.70;94.90
23869;DHT22;12115;47.128;15.422;2024-02-16T17:30:19;10.60;94.90
23869;DHT22;12115;47.128;15.422;2024-02-16T17:32:47;10.60;95.40
23869;DHT22;12115;47.128;15.422;2024-02-16T17:35:17;10.40;96.00
23869;DHT22;12115;47.128;15.422;2024-02-16T17:37:46;10.20;96.30
23869;DHT22;12115;47.128;15.422;2024-02-16T17:40:14;10.10;96.50
23869;DHT22;12115;47.128;15.422;2024-02-16T17:42:42;10.10;96.40
23869;DHT22;12115;47.128;15.422;2024-02-16T17:45:09;10.00;96.20
23869;DHT22;12115;47.128;15.422;2024-02-16T17:47:37;9.90;96.70
23869;DHT22;12115;47.128;15.422;2024-02-16T17:50:06;9.90;96.90
23869;DHT22;12115;47.128;15.422;2024-02-16T17:52:33;9.80;97.00
23869;DHT22;12115;47.128;15.422;2024-02-16T17:55:00;9.80;97.10
23869;DHT22;12115;47.128;15.422;2024-02-16T17:57:34;9.80;97.30
23869;DHT22;12115;47.128;15.422;2024-02-16T18:00:01;9.70;97.50
23869;DHT22;12115;47.128;15.422;2024-02-16T18:02:30;9.60;97.60
23869;DHT22;12115;47.128;15.422;2024-02-16T18:05:08;9.50;97.60
23869;DHT22;12115;47.128;15.422;2024-02-16T18:07:35;9.50;97.90
23869;DHT22;12115;47.128;15.422;2024-02-16T18:10:02;9.40;98.40
23869;DHT22;12115;47.128;15.422;2024-02-16T18:12:34;9.30;98.40
23869;DHT22;12115;47.128;15.422;2024-02-16T18:15:02;9.20;98.70
23869;DHT22;12115;47.128;15.422;2024-02-16T18:17:31;9.10;98.50
23869;DHT22;12115;47.128;15.422;2024-02-16T18:19:58;9.20;98.70
23869;DHT22;12115;47.128;15.422;2024-02-16T18:22:25;9.10;98.80
23869;DHT22;12115;47.128;15.422;2024-02-16T18:24:53;8.90;99.00
23869;DHT22;12115;47.128;15.422;2024-02-16T18:27:19;8.90;99.10
23869;DHT22;12115;47.128;15.422;2024-02-16T18:29:47;8.90;99.00
23869;DHT22;12115;47.128;15.422;2024-02-16T18:32:14;8.90;99.10
23869;DHT22;12115;47.128;15.422;2024-02-16T18:34:41;8.80;99.20
23869;DHT22;12115;47.128;15.422;2024-02-16T18:37:10;8.80;99.30